createdAt,value
2019-05-21T00:00:26.744Z,77.82
2019-05-21T00:02:55.826Z,77.82
2019-05-21T00:05:24.884Z,77.81
2019-05-21T00:07:53.956Z,77.89
2019-05-21T00:10:23.035Z,77.93
2019-05-21T00:12:52.089Z,77.91
2019-05-21T00:15:21.171Z,77.92
2019-05-21T00:17:50.222Z,77.94
2019-05-21T00:20:19.316Z,77.89
2019-05-21T00:22:48.382Z,77.82
2019-05-21T00:25:17.625Z,77.75
2019-05-21T00:27:46.615Z,77.55
2019-05-21T00:30:51.368Z,77.49
2019-05-21T00:33:56.460Z,77.47
2019-05-21T00:37:04.078Z,77.45
2019-05-21T00:40:09.082Z,77.35
2019-05-21T00:42:41.140Z,77.17
2019-05-21T00:45:11.660Z,77.10
2019-05-21T00:47:40.750Z,77.11
2019-05-21T00:50:10.227Z,77.13
2019-05-21T00:52:39.292Z,77.05
2019-05-21T00:55:08.668Z,76.89
2019-05-21T00:57:37.654Z,76.78
2019-05-21T01:00:07.495Z,76.65
2019-05-21T01:02:36.632Z,76.49
2019-05-21T01:05:05.750Z,76.36
2019-05-21T01:07:34.803Z,76.23
2019-05-21T01:10:04.079Z,76.09
2019-05-21T01:12:33.059Z,76.01
2019-05-21T01:15:02.256Z,76.01
2019-05-21T01:17:31.305Z,75.93
2019-05-21T01:20:00.387Z,75.89
2019-05-21T01:22:29.372Z,75.75
2019-05-21T01:24:58.449Z,75.69
2019-05-21T01:27:27.521Z,75.70
2019-05-21T01:29:56.603Z,75.68
2019-05-21T01:32:25.662Z,75.65
2019-05-21T01:34:54.746Z,75.62
2019-05-21T01:37:23.803Z,75.47
2019-05-21T01:39:52.933Z,75.33
2019-05-21T01:42:21.905Z,75.33
2019-05-21T01:44:50.893Z,75.38
2019-05-21T01:47:19.998Z,75.31
2019-05-21T01:49:48.912Z,75.25
2019-05-21T01:52:17.984Z,75.21
2019-05-21T01:54:46.968Z,75.24
2019-05-21T01:57:16.052Z,75.23
2019-05-21T01:59:45.021Z,75.27
2019-05-21T02:02:14.098Z,75.33
2019-05-21T02:04:43.149Z,75.25
2019-05-21T02:07:12.230Z,75.29
2019-05-21T02:09:59.932Z,75.35
2019-05-21T02:12:29.219Z,75.32
2019-05-21T02:14:58.266Z,75.32
2019-05-21T02:17:27.352Z,75.32
2019-05-21T02:19:56.406Z,75.39
2019-05-21T02:22:25.414Z,75.51
2019-05-21T02:24:54.478Z,75.51
2019-05-21T02:27:23.487Z,75.52
2019-05-21T02:29:52.548Z,75.43
2019-05-21T02:32:21.628Z,75.60
2019-05-21T02:34:50.687Z,75.66
2019-05-21T02:37:19.768Z,75.77
2019-05-21T02:39:48.882Z,75.83
2019-05-21T02:42:17.959Z,75.80
2019-05-21T02:44:47.014Z,75.78
2019-05-21T02:47:16.111Z,75.74
2019-05-21T02:49:45.088Z,75.64
2019-05-21T02:52:14.095Z,75.80
2019-05-21T02:54:43.156Z,75.81
2019-05-21T02:57:12.243Z,75.90
2019-05-21T02:59:42.874Z,75.97
2019-05-21T03:02:26.039Z,75.96
2019-05-21T03:04:55.008Z,75.94
2019-05-21T03:07:25.732Z,75.97
2019-05-21T03:09:54.936Z,75.99
2019-05-21T03:12:23.928Z,76.00
2019-05-21T03:14:52.911Z,76.05
2019-05-21T03:17:21.921Z,76.26
2019-05-21T03:19:50.964Z,76.40
2019-05-21T03:22:20.037Z,76.60
2019-05-21T03:24:49.107Z,76.76
2019-05-21T03:27:18.212Z,76.97
2019-05-21T03:29:47.290Z,77.22
2019-05-21T03:32:16.382Z,77.38
2019-05-21T03:34:45.435Z,77.61
2019-05-21T03:37:14.526Z,77.74
2019-05-21T03:39:43.579Z,77.74
2019-05-21T03:42:12.637Z,77.87
2019-05-21T03:44:58.240Z,78.08
2019-05-21T03:47:12.526Z,78.20
2019-05-21T03:49:41.612Z,78.34
2019-05-21T03:52:10.683Z,78.45
2019-05-21T03:54:39.793Z,78.57
2019-05-21T03:57:08.834Z,78.75
2019-05-21T03:59:37.912Z,78.85
2019-05-21T04:02:06.970Z,78.86
2019-05-21T04:04:36.060Z,78.94
2019-05-21T04:07:05.138Z,79.04
2019-05-21T04:09:34.216Z,79.08
2019-05-21T04:12:03.282Z,79.18
2019-05-21T04:14:36.359Z,79.23
2019-05-21T04:17:15.886Z,79.23
2019-05-21T04:19:44.966Z,79.19
2019-05-21T04:22:17.663Z,79.29
2019-05-21T04:24:46.754Z,79.34
2019-05-21T04:27:15.956Z,79.36
2019-05-21T04:29:44.964Z,79.37
2019-05-21T04:32:13.962Z,79.35
2019-05-21T04:34:42.981Z,79.41
2019-05-21T04:37:13.354Z,79.42
2019-05-21T04:39:42.883Z,79.35
2019-05-21T04:42:11.978Z,79.47
2019-05-21T04:44:40.982Z,79.50
2019-05-21T04:47:10.062Z,79.57
2019-05-21T04:49:39.161Z,79.57
2019-05-21T04:52:08.214Z,79.59
2019-05-21T04:54:37.296Z,79.62
2019-05-21T04:57:06.276Z,79.65
2019-05-21T04:59:35.287Z,79.64
2019-05-21T05:02:04.341Z,79.76
2019-05-21T05:04:33.417Z,79.73
2019-05-21T05:07:02.398Z,79.81
2019-05-21T05:09:31.479Z,79.81
2019-05-21T05:12:00.566Z,79.90
2019-05-21T05:14:29.645Z,79.98
2019-05-21T05:16:58.701Z,80.08
2019-05-21T05:19:27.771Z,80.07
2019-05-21T05:21:56.825Z,80.15
2019-05-21T05:24:25.905Z,80.08
2019-05-21T05:26:54.896Z,80.10
2019-05-21T05:29:23.892Z,80.02
2019-05-21T05:31:52.875Z,80.01
2019-05-21T05:34:21.879Z,79.87
2019-05-21T05:36:50.939Z,79.79
2019-05-21T05:39:20.019Z,79.74
2019-05-21T05:41:48.928Z,79.73
2019-05-21T05:44:17.985Z,79.75
2019-05-21T05:46:46.975Z,79.71
2019-05-21T05:49:21.232Z,79.79
2019-05-21T05:51:50.309Z,79.77
2019-05-21T05:54:19.363Z,79.79
2019-05-21T05:56:48.370Z,79.88
2019-05-21T05:59:17.428Z,79.94
2019-05-21T06:01:46.506Z,79.93
2019-05-21T06:04:15.490Z,79.83
2019-05-21T06:06:44.573Z,79.72
2019-05-21T06:09:13.631Z,79.67
2019-05-21T06:11:42.718Z,79.60
2019-05-21T06:14:11.708Z,79.63
2019-05-21T06:16:40.799Z,79.70
2019-05-21T06:19:09.860Z,79.68
2019-05-21T06:21:38.945Z,79.69
2019-05-21T06:24:08.002Z,79.63
2019-05-21T06:26:37.079Z,79.51
2019-05-21T06:29:06.171Z,79.44
2019-05-21T06:31:35.224Z,79.39
2019-05-21T06:34:04.986Z,79.30
2019-05-21T06:36:34.077Z,79.25
2019-05-21T06:39:05.062Z,79.15
2019-05-21T06:41:34.144Z,79.03
2019-05-21T06:44:03.151Z,78.89
2019-05-21T06:46:32.258Z,78.77
2019-05-21T06:49:01.335Z,78.54
2019-05-21T06:51:30.423Z,78.34
2019-05-21T06:53:59.488Z,78.22
2019-05-21T06:56:28.596Z,78.22
2019-05-21T06:58:57.668Z,78.07
2019-05-21T07:01:29.205Z,77.90
2019-05-21T07:03:57.479Z,77.75
2019-05-21T07:06:26.552Z,77.57
2019-05-21T07:08:55.609Z,77.60
2019-05-21T07:11:24.695Z,77.55
2019-05-21T07:13:53.755Z,77.46
2019-05-21T07:16:22.851Z,77.20
2019-05-21T07:18:51.908Z,76.94
2019-05-21T07:21:21.010Z,76.84
2019-05-21T07:23:50.101Z,76.53
2019-05-21T07:26:19.259Z,76.37
2019-05-21T07:28:48.325Z,76.48
2019-05-21T07:31:17.766Z,76.44
2019-05-21T07:33:46.947Z,76.55
2019-05-21T07:36:16.031Z,76.52
2019-05-21T07:38:53.335Z,76.49
2019-05-21T07:41:15.908Z,76.42
2019-05-21T07:43:45.009Z,76.25
2019-05-21T07:46:14.062Z,76.10
2019-05-21T07:48:43.248Z,76.03
2019-05-21T07:51:12.224Z,75.99
2019-05-21T07:53:41.302Z,76.01
2019-05-21T07:56:10.372Z,76.03
2019-05-21T07:58:39.456Z,76.10
2019-05-21T08:01:08.524Z,76.17
2019-05-21T08:03:37.612Z,76.12
2019-05-21T08:06:06.665Z,76.15
2019-05-21T08:08:35.843Z,76.25
2019-05-21T08:11:04.915Z,76.23
2019-05-21T08:13:33.919Z,76.22
2019-05-21T08:16:02.973Z,76.13
2019-05-21T08:18:32.043Z,75.99
2019-05-21T08:21:01.111Z,75.98
2019-05-21T08:23:30.184Z,75.96
2019-05-21T08:25:59.239Z,76.02
2019-05-21T08:28:28.313Z,75.99
2019-05-21T08:30:57.375Z,75.94
2019-05-21T08:33:26.385Z,76.09
2019-05-21T08:35:55.450Z,76.25
2019-05-21T08:38:24.536Z,76.33
2019-05-21T08:40:53.591Z,76.34
2019-05-21T08:43:22.669Z,76.31
2019-05-21T08:45:51.732Z,76.25
2019-05-21T08:48:20.845Z,76.26
2019-05-21T08:50:49.901Z,76.20
2019-05-21T08:53:18.983Z,76.08
2019-05-21T08:55:48.059Z,75.96
2019-05-21T08:58:17.154Z,75.98
2019-05-21T09:00:46.227Z,75.82
2019-05-21T09:03:15.423Z,75.77
2019-05-21T09:05:44.497Z,75.73
2019-05-21T09:08:13.640Z,75.52
2019-05-21T09:10:43.190Z,75.33
2019-05-21T09:13:12.319Z,75.20
2019-05-21T09:15:41.383Z,74.23
2019-05-21T09:18:10.469Z,74.08
2019-05-21T09:20:42.379Z,74.67
2019-05-21T09:23:11.465Z,74.48
2019-05-21T09:25:43.329Z,74.35
2019-05-21T09:28:12.446Z,73.95
2019-05-21T09:30:41.560Z,72.93
2019-05-21T09:33:10.648Z,72.70
2019-05-21T09:35:39.782Z,72.65
2019-05-21T09:38:08.864Z,72.30
2019-05-21T09:40:37.982Z,72.23
2019-05-21T09:43:07.109Z,71.89
2019-05-21T09:45:36.201Z,71.88
2019-05-21T09:48:05.339Z,71.49
2019-05-21T09:50:34.467Z,71.20
2019-05-21T09:53:03.540Z,71.17
2019-05-21T09:55:33.785Z,71.03
2019-05-21T09:58:22.005Z,70.84
2019-05-21T10:01:16.349Z,70.93
2019-05-21T10:03:49.273Z,71.02
2019-05-21T10:06:18.334Z,70.24
2019-05-21T10:08:47.461Z,69.56
2019-05-21T10:11:16.643Z,69.30
2019-05-21T10:13:45.920Z,68.95
2019-05-21T10:16:15.019Z,68.85
2019-05-21T10:18:44.106Z,69.54
2019-05-21T10:21:13.166Z,69.19
2019-05-21T10:23:42.150Z,68.12
2019-05-21T10:26:11.237Z,66.89
2019-05-21T10:28:40.330Z,66.30
2019-05-21T10:31:09.428Z,66.17
2019-05-21T10:33:38.499Z,65.67
2019-05-21T10:36:07.583Z,65.70
2019-05-21T10:38:36.638Z,65.80
2019-05-21T10:41:05.878Z,65.21
2019-05-21T10:43:34.964Z,64.52
2019-05-21T10:46:04.285Z,64.73
2019-05-21T10:48:33.360Z,64.91
2019-05-21T10:51:02.463Z,63.82
2019-05-21T10:53:31.548Z,63.25
2019-05-21T10:56:00.632Z,63.08
2019-05-21T10:58:29.706Z,62.43
2019-05-21T11:01:06.923Z,62.25
2019-05-21T11:03:53.675Z,62.38
2019-05-21T11:06:22.766Z,62.58
2019-05-21T11:08:51.838Z,62.36
2019-05-21T11:11:21.392Z,61.81
2019-05-21T11:13:50.574Z,61.06
2019-05-21T11:16:19.679Z,61.29
2019-05-21T11:18:48.749Z,62.18
2019-05-21T11:21:17.856Z,62.04
2019-05-21T11:23:46.976Z,61.26
2019-05-21T11:26:16.067Z,60.84
2019-05-21T11:28:45.129Z,59.85
2019-05-21T11:31:14.270Z,59.64
2019-05-21T11:33:43.315Z,59.56
2019-05-21T11:36:12.510Z,59.14
2019-05-21T11:38:41.590Z,58.13
2019-05-21T11:41:10.715Z,58.19
2019-05-21T11:43:39.765Z,57.66
2019-05-21T11:46:08.866Z,57.75
2019-05-21T11:48:37.992Z,57.25
2019-05-21T11:51:07.102Z,56.55
2019-05-21T11:53:36.179Z,56.48
2019-05-21T11:56:05.269Z,56.61
2019-05-21T11:58:39.562Z,56.45
2019-05-21T12:01:05.253Z,56.17
2019-05-21T12:03:34.246Z,55.50
2019-05-21T12:06:03.326Z,55.25
2019-05-21T12:08:32.393Z,54.42
2019-05-21T12:11:01.487Z,52.97
2019-05-21T12:13:30.495Z,52.69
2019-05-21T12:15:59.573Z,51.70
2019-05-21T12:18:28.567Z,50.65
2019-05-21T12:20:57.637Z,50.54
2019-05-21T12:23:26.718Z,50.92
2019-05-21T12:25:55.793Z,50.59
2019-05-21T12:28:24.865Z,50.56
2019-05-21T12:30:53.943Z,50.35
2019-05-21T12:33:23.021Z,49.50
2019-05-21T12:35:52.095Z,49.53
2019-05-21T12:38:21.189Z,49.30
2019-05-21T12:40:50.250Z,48.74
2019-05-21T12:43:19.334Z,48.74
2019-05-21T12:45:48.416Z,48.70
2019-05-21T12:48:17.527Z,47.72
2019-05-21T12:50:46.610Z,47.78
2019-05-21T12:53:16.683Z,48.28
2019-05-21T12:55:45.932Z,48.74
2019-05-21T12:58:14.934Z,48.86
2019-05-21T13:00:44.089Z,47.82
2019-05-21T13:03:13.139Z,47.80
2019-05-21T13:05:42.205Z,47.63
2019-05-21T13:08:11.279Z,47.60
2019-05-21T13:10:40.460Z,47.10
2019-05-21T13:13:09.518Z,47.51
2019-05-21T13:15:38.582Z,47.14
2019-05-21T13:18:07.688Z,46.21
2019-05-21T13:20:36.743Z,45.33
2019-05-21T13:23:05.979Z,45.12
2019-05-21T13:25:36.006Z,45.30
2019-05-21T13:28:05.093Z,45.03
2019-05-21T13:30:34.165Z,44.71
2019-05-21T13:33:03.263Z,44.53
2019-05-21T13:35:32.324Z,44.89
2019-05-21T13:38:01.409Z,44.97
2019-05-21T13:40:31.272Z,45.08
2019-05-21T13:43:00.878Z,44.85
2019-05-21T13:45:29.933Z,44.86
2019-05-21T13:47:59.041Z,44.86
2019-05-21T13:50:28.155Z,45.03
2019-05-21T13:52:57.266Z,45.18
2019-05-21T13:55:26.329Z,45.30
2019-05-21T13:57:55.426Z,45.01
2019-05-21T14:00:32.132Z,45.67
2019-05-21T14:03:01.211Z,46.26
2019-05-21T14:05:30.378Z,46.06
2019-05-21T14:07:59.462Z,46.24
2019-05-21T14:10:28.904Z,46.15
2019-05-21T14:12:58.018Z,45.96
2019-05-21T14:15:27.085Z,45.96
2019-05-21T14:17:56.170Z,45.99
2019-05-21T14:20:25.250Z,45.91
2019-05-21T14:22:54.257Z,46.25
2019-05-21T14:25:23.307Z,45.68
2019-05-21T14:27:52.427Z,45.55
2019-05-21T14:30:21.550Z,45.77
2019-05-21T14:36:37.473Z,45.81
2019-05-21T14:39:14.699Z,45.85
2019-05-21T14:41:48.769Z,46.05
2019-05-21T14:44:20.733Z,46.08
2019-05-21T14:46:49.785Z,47.51
2019-05-21T14:49:18.913Z,48.66
2019-05-21T14:51:47.984Z,49.42
2019-05-21T14:54:26.407Z,50.51
2019-05-21T14:56:48.595Z,50.51
2019-05-21T14:59:17.718Z,51.26
2019-05-21T15:01:46.851Z,51.85
2019-05-21T15:04:16.022Z,52.47
2019-05-21T15:06:45.106Z,53.09
2019-05-21T15:09:14.214Z,53.57
2019-05-21T15:11:43.290Z,53.67
2019-05-21T15:14:12.376Z,53.49
2019-05-21T15:16:41.330Z,53.36
2019-05-21T15:19:10.403Z,53.65
2019-05-21T15:21:43.907Z,54.15
2019-05-21T15:24:13.992Z,53.87
2019-05-21T15:26:43.296Z,54.34
2019-05-21T15:29:12.365Z,54.11
2019-05-21T15:31:43.004Z,53.91
2019-05-21T15:34:12.112Z,54.69
2019-05-21T15:36:41.188Z,55.41
2019-05-21T15:39:10.293Z,56.05
2019-05-21T15:41:39.356Z,56.59
2019-05-21T15:44:08.446Z,57.13
2019-05-21T15:46:49.850Z,57.36
2019-05-21T15:49:14.758Z,57.89
2019-05-21T15:51:47.823Z,58.15
2019-05-21T15:54:16.964Z,58.57
2019-05-21T15:56:46.032Z,59.08
2019-05-21T15:59:15.156Z,59.45
2019-05-21T16:01:44.264Z,60.05
2019-05-21T16:04:16.412Z,60.25
2019-05-21T16:06:44.344Z,60.27
2019-05-21T16:09:13.627Z,60.71
2019-05-21T16:11:42.755Z,60.66
2019-05-21T16:14:11.823Z,60.98
2019-05-21T16:16:40.944Z,61.11
2019-05-21T16:19:10.017Z,61.05
2019-05-21T16:21:39.251Z,61.21
2019-05-21T16:24:08.299Z,61.11
2019-05-21T16:26:37.481Z,61.12
2019-05-21T16:29:06.552Z,61.25
2019-05-21T16:31:35.646Z,61.26
2019-05-21T16:34:04.950Z,61.63
2019-05-21T16:36:34.054Z,62.09
2019-05-21T16:39:04.878Z,62.07
2019-05-21T16:41:44.358Z,62.56
2019-05-21T16:44:04.968Z,62.81
2019-05-21T16:46:34.159Z,62.92
2019-05-21T16:49:03.344Z,63.00
2019-05-21T16:51:32.432Z,63.20
2019-05-21T16:54:02.018Z,63.34
2019-05-21T16:56:31.067Z,63.49
2019-05-21T16:59:00.131Z,63.58
2019-05-21T17:01:29.792Z,63.45
2019-05-21T17:04:00.417Z,63.44
2019-05-21T17:06:29.711Z,63.52
2019-05-21T17:08:58.773Z,63.56
2019-05-21T17:11:27.976Z,63.76
2019-05-21T17:13:57.052Z,63.63
2019-05-21T17:16:26.148Z,63.40
2019-05-21T17:18:55.132Z,63.61
2019-05-21T17:21:24.220Z,63.90
2019-05-21T17:23:54.099Z,64.15
2019-05-21T17:26:23.254Z,64.18
2019-05-21T17:28:52.268Z,64.43
2019-05-21T17:31:21.357Z,64.50
2019-05-21T17:33:50.407Z,64.57
2019-05-21T17:36:23.926Z,64.62
2019-05-21T17:38:52.937Z,65.07
2019-05-21T17:41:22.026Z,65.27
2019-05-21T17:43:51.095Z,65.40
2019-05-21T17:46:21.877Z,65.79
2019-05-21T17:48:50.974Z,66.03
2019-05-21T17:51:20.073Z,66.13
2019-05-21T17:53:49.174Z,66.21
2019-05-21T17:56:18.351Z,66.13
2019-05-21T17:58:47.389Z,66.40
2019-05-21T18:01:16.570Z,66.57
2019-05-21T18:03:45.641Z,66.71
2019-05-21T18:06:14.698Z,66.65
2019-05-21T18:08:43.873Z,66.92
2019-05-21T18:11:14.238Z,67.08
2019-05-21T18:13:43.737Z,67.32
2019-05-21T18:16:13.231Z,67.62
2019-05-21T18:18:42.430Z,67.86
2019-05-21T18:21:12.055Z,68.12
2019-05-21T18:23:41.532Z,68.50
2019-05-21T18:26:10.591Z,68.74
2019-05-21T18:28:39.687Z,68.92
2019-05-21T18:31:08.755Z,69.17
2019-05-21T18:33:37.912Z,69.35
2019-05-21T18:36:07.108Z,69.53
2019-05-21T18:38:37.258Z,69.48
2019-05-21T18:41:06.383Z,69.53
2019-05-21T18:43:38.355Z,69.70
2019-05-21T18:46:08.686Z,69.76
2019-05-21T18:48:38.031Z,69.90
2019-05-21T18:51:07.843Z,70.08
2019-05-21T18:53:37.681Z,70.37
2019-05-21T18:56:06.791Z,70.37
2019-05-21T18:58:35.881Z,70.33
2019-05-21T19:01:07.510Z,70.62
2019-05-21T19:03:36.598Z,70.79
2019-05-21T19:06:05.679Z,70.83
2019-05-21T19:08:34.761Z,70.65
2019-05-21T19:11:03.960Z,70.62
2019-05-21T19:13:33.206Z,70.77
2019-05-21T19:16:02.205Z,70.85
2019-05-21T19:18:31.400Z,70.89
2019-05-21T19:21:00.477Z,70.98
2019-05-21T19:23:29.545Z,70.95
2019-05-21T19:25:59.851Z,70.89
2019-05-21T19:28:28.977Z,70.94
2019-05-21T19:31:03.192Z,70.99
2019-05-21T19:33:35.296Z,70.97
2019-05-21T19:36:12.997Z,70.94
2019-05-21T19:38:42.020Z,71.04
2019-05-21T19:41:11.164Z,71.23
2019-05-21T19:43:40.362Z,71.42
2019-05-21T19:46:13.847Z,71.40
2019-05-21T19:48:44.404Z,71.45
2019-05-21T19:51:13.941Z,71.56
2019-05-21T19:53:43.025Z,71.69
2019-05-21T19:56:12.094Z,71.80
2019-05-21T20:01:29.400Z,71.79
2019-05-21T20:03:58.438Z,71.81
2019-05-21T20:06:27.625Z,71.77
2019-05-21T20:08:58.083Z,71.74
2019-05-21T20:11:27.333Z,71.72
2019-05-21T20:13:56.532Z,71.75
2019-05-21T20:16:25.698Z,71.91
2019-05-21T20:18:54.902Z,71.99
2019-05-21T20:21:24.449Z,72.22
2019-05-21T20:23:53.547Z,72.13
2019-05-21T20:26:25.068Z,72.09
2019-05-21T20:28:54.362Z,72.21
2019-05-21T20:31:23.551Z,72.30
2019-05-21T20:33:53.988Z,72.58
2019-05-21T20:36:23.059Z,72.68
2019-05-21T20:38:52.639Z,72.79
2019-05-21T20:41:22.884Z,72.81
2019-05-21T20:43:59.083Z,73.07
2019-05-21T20:46:23.556Z,73.17
2019-05-21T20:48:54.698Z,73.23
2019-05-21T20:51:24.161Z,73.38
2019-05-21T20:53:53.802Z,73.49
2019-05-21T20:56:22.909Z,73.46
2019-05-21T20:58:51.972Z,73.35
2019-05-21T21:01:21.074Z,73.45
2019-05-21T21:03:51.000Z,73.55
2019-05-21T21:06:34.108Z,73.69
2019-05-21T21:08:51.877Z,73.75
2019-05-21T21:11:21.063Z,73.86
2019-05-21T21:13:50.166Z,73.89
2019-05-21T21:16:19.364Z,74.04
2019-05-21T21:18:48.566Z,74.01
2019-05-21T21:21:17.592Z,74.00
2019-05-21T21:23:46.661Z,73.99
2019-05-21T21:26:16.110Z,74.01
2019-05-21T21:28:45.157Z,73.62
2019-05-21T21:31:14.422Z,73.73
2019-05-21T21:33:43.421Z,73.65
2019-05-21T21:36:12.511Z,73.65
2019-05-21T21:38:41.865Z,73.59
2019-05-21T21:41:10.963Z,73.57
2019-05-21T21:43:40.062Z,73.47
2019-05-21T21:46:09.248Z,73.51
2019-05-21T21:48:38.835Z,73.59
2019-05-21T21:51:09.885Z,73.56
2019-05-21T21:53:39.899Z,73.50
2019-05-21T21:56:08.990Z,73.49
2019-05-21T21:58:38.114Z,73.67
2019-05-21T22:01:26.310Z,73.75
2019-05-21T22:04:00.091Z,73.87
2019-05-21T22:06:31.754Z,74.10
2019-05-21T22:09:02.116Z,74.28
2019-05-21T22:11:32.283Z,74.51
2019-05-21T22:14:01.666Z,74.63
2019-05-21T22:16:30.965Z,74.93
2019-05-21T22:18:59.968Z,75.14
2019-05-21T22:21:29.589Z,75.17
2019-05-21T22:23:59.260Z,75.27
2019-05-21T22:26:28.437Z,75.32
2019-05-21T22:28:57.558Z,75.31
2019-05-21T22:31:26.662Z,75.47
2019-05-21T22:33:55.750Z,75.65
2019-05-21T22:36:25.018Z,75.85
2019-05-21T22:38:54.201Z,76.14
2019-05-21T22:41:23.233Z,76.25
2019-05-21T22:43:52.371Z,76.40
2019-05-21T22:46:21.562Z,76.45
2019-05-21T22:48:50.683Z,76.52
2019-05-21T22:51:19.746Z,76.60
2019-05-21T22:53:48.834Z,76.75
2019-05-21T22:56:17.900Z,76.85
2019-05-21T22:58:47.010Z,76.72
2019-05-21T23:01:16.311Z,76.68
2019-05-21T23:03:45.864Z,76.67
2019-05-21T23:06:14.936Z,76.75
2019-05-21T23:08:44.036Z,76.79
2019-05-21T23:11:13.040Z,76.84
2019-05-21T23:13:42.068Z,77.01
2019-05-21T23:16:11.519Z,77.02
2019-05-21T23:18:40.623Z,76.84
2019-05-21T23:21:11.182Z,76.91
2019-05-21T23:23:41.776Z,76.78
2019-05-21T23:26:11.262Z,76.99
2019-05-21T23:28:41.038Z,76.99
2019-05-21T23:31:10.198Z,77.05
2019-05-21T23:33:40.773Z,77.20
2019-05-21T23:36:10.525Z,77.24
2019-05-21T23:38:40.532Z,77.26
2019-05-21T23:41:09.798Z,77.36
2019-05-21T23:43:39.731Z,77.52
2019-05-21T23:46:09.381Z,77.50
2019-05-21T23:48:38.658Z,77.52
2019-05-21T23:51:07.722Z,77.64
2019-05-21T23:53:36.740Z,77.71
2019-05-21T23:56:05.923Z,77.76
2019-05-21T23:58:35.216Z,77.81
